Time,TemperatureF,DewpointF,PressureIn,WindDirection,WindDirectionDegrees,WindSpeedMPH,WindSpeedGustMPH,Humidity,HourlyPrecipIn,Conditions,Clouds,dailyrainin,SoftwareType,DateUTC
2013-04-04 00:00:00,36.0,14.0,-100.00,NNW,328,2.0,10.0,40,-99.99,,,-99.99,,2013-04-04 04:00:00,
2013-04-04 00:34:00,36.0,14.0,-100.00,NNW,328,2.0,10.0,40,-99.99,,,-99.99,,2013-04-04 04:34:00,
2013-04-04 00:43:00,36.0,14.0,-100.00,NNW,328,2.0,10.0,40,-99.99,,,-99.99,,2013-04-04 04:43:00,
2013-04-04 00:53:00,36.0,14.0,-100.00,NNW,328,2.0,10.0,40,-99.99,,,-99.99,,2013-04-04 04:53:00,
2013-04-04 03:00:00,29.0,19.0,-100.00,NNW,328,0.0,4.0,69,-99.99,,,-99.99,,2013-04-04 07:00:00,
2013-04-04 03:22:00,29.0,19.0,-100.00,NNW,328,0.0,4.0,69,-99.99,,,-99.99,,2013-04-04 07:22:00,
2013-04-04 03:32:00,29.0,19.0,-100.00,NNW,328,0.0,4.0,69,-99.99,,,-99.99,,2013-04-04 07:32:00,
2013-04-04 03:43:00,29.0,19.0,-100.00,NNW,328,0.0,4.0,69,-99.99,,,-99.99,,2013-04-04 07:43:00,
2013-04-04 03:53:00,29.0,19.0,-100.00,NNW,328,0.0,4.0,69,-99.99,,,-99.99,,2013-04-04 07:53:00,
2013-04-04 04:00:00,27.0,19.0,-100.00,NNW,335,0.0,0.0,73,-99.99,,,-99.99,,2013-04-04 08:00:00,
2013-04-04 04:23:00,27.0,19.0,-100.00,NNW,335,0.0,0.0,73,-99.99,,,-99.99,,2013-04-04 08:23:00,
2013-04-04 04:32:00,27.0,19.0,-100.00,NNW,335,0.0,0.0,73,-99.99,,,-99.99,,2013-04-04 08:32:00,
2013-04-04 04:43:00,27.0,19.0,-100.00,NNW,335,0.0,0.0,73,-99.99,,,-99.99,,2013-04-04 08:43:00,
2013-04-04 04:53:00,27.0,19.0,-100.00,NNW,335,0.0,0.0,73,-99.99,,,-99.99,,2013-04-04 08:53:00,
2013-04-04 05:00:00,26.0,20.0,-100.00,NE,52,0.0,0.0,80,-99.99,,,-99.99,,2013-04-04 09:00:00,
2013-04-04 05:22:00,26.0,20.0,-100.00,NE,52,0.0,0.0,80,-99.99,,,-99.99,,2013-04-04 09:22:00,
2013-04-04 05:34:00,26.0,20.0,-100.00,NE,52,0.0,0.0,80,-99.99,,,-99.99,,2013-04-04 09:34:00,
2013-04-04 05:44:00,26.0,20.0,-100.00,NE,52,0.0,0.0,80,-99.99,,,-99.99,,2013-04-04 09:44:00,
2013-04-04 05:54:00,26.0,20.0,-100.00,NE,52,0.0,0.0,80,-99.99,,,-99.99,,2013-04-04 09:54:00,
2013-04-04 06:00:00,26.0,19.0,-100.00,NNE,25,0.0,3.0,79,-99.99,,,-99.99,,2013-04-04 10:00:00,
2013-04-04 06:24:00,26.0,19.0,-100.00,NNE,25,0.0,3.0,79,-99.99,,,-99.99,,2013-04-04 10:24:00,
2013-04-04 06:34:00,26.0,19.0,-100.00,NNE,25,0.0,3.0,79,-99.99,,,-99.99,,2013-04-04 10:34:00,
2013-04-04 06:43:00,26.0,19.0,-100.00,NNE,25,0.0,3.0,79,-99.99,,,-99.99,,2013-04-04 10:43:00,
2013-04-04 06:54:00,26.0,19.0,-100.00,NNE,25,0.0,3.0,79,-99.99,,,-99.99,,2013-04-04 10:54:00,
2013-04-04 07:00:00,26.0,20.0,-100.00,NE,43,0.0,3.0,80,-99.99,,,-99.99,,2013-04-04 11:00:00,
2013-04-04 07:23:00,26.0,20.0,-100.00,NE,43,0.0,3.0,80,-99.99,,,-99.99,,2013-04-04 11:23:00,
2013-04-04 07:33:00,26.0,20.0,-100.00,NE,43,0.0,3.0,80,-99.99,,,-99.99,,2013-04-04 11:33:00,
2013-04-04 07:43:00,26.0,20.0,-100.00,NE,43,0.0,3.0,80,-99.99,,,-99.99,,2013-04-04 11:43:00,
2013-04-04 07:55:00,26.0,20.0,-100.00,NE,43,0.0,3.0,80,-99.99,,,-99.99,,2013-04-04 11:55:00,
2013-04-04 09:00:00,38.0,20.0,-100.00,NE,55,2.0,8.0,48,-99.99,,,-99.99,,2013-04-04 13:00:00,
2013-04-04 09:33:00,38.0,20.0,-100.00,NE,55,2.0,8.0,48,-99.99,,,-99.99,,2013-04-04 13:33:00,
2013-04-04 09:43:00,38.0,20.0,-100.00,NE,55,2.0,8.0,48,-99.99,,,-99.99,,2013-04-04 13:43:00,
2013-04-04 09:53:00,38.0,20.0,-100.00,NE,55,2.0,8.0,48,-99.99,,,-99.99,,2013-04-04 13:53:00,
2013-04-04 10:00:00,42.0,16.0,-100.00,NNE,22,0.0,7.0,35,-99.99,,,-99.99,,2013-04-04 14:00:00,
2013-04-04 10:22:00,42.0,16.0,-100.00,NNE,22,0.0,7.0,35,-99.99,,,-99.99,,2013-04-04 14:22:00,
2013-04-04 10:33:00,42.0,16.0,-100.00,NNE,22,0.0,7.0,35,-99.99,,,-99.99,,2013-04-04 14:33:00,
2013-04-04 10:43:00,42.0,16.0,-100.00,NNE,22,0.0,7.0,35,-99.99,,,-99.99,,2013-04-04 14:43:00,
2013-04-04 10:53:00,42.0,16.0,-100.00,NNE,22,0.0,7.0,35,-99.99,,,-99.99,,2013-04-04 14:53:00,
2013-04-04 11:00:00,45.0,18.0,-100.00,SW,216,1.0,7.0,34,-99.99,,,-99.99,,2013-04-04 15:00:00,
2013-04-04 11:34:00,45.0,18.0,-100.00,SW,216,1.0,7.0,34,-99.99,,,-99.99,,2013-04-04 15:34:00,
2013-04-04 11:43:00,45.0,18.0,-100.00,SW,216,1.0,7.0,34,-99.99,,,-99.99,,2013-04-04 15:43:00,
2013-04-04 11:54:00,45.0,18.0,-100.00,SW,216,1.0,7.0,34,-99.99,,,-99.99,,2013-04-04 15:54:00,
2013-04-04 12:00:00,46.0,19.0,-100.00,SE,128,5.0,10.0,34,-99.99,,,-99.99,,2013-04-04 16:00:00,
2013-04-04 12:25:00,46.0,19.0,-100.00,SE,128,5.0,10.0,34,-99.99,,,-99.99,,2013-04-04 16:25:00,
2013-04-04 12:33:00,46.0,19.0,-100.00,SE,128,5.0,10.0,34,-99.99,,,-99.99,,2013-04-04 16:33:00,
2013-04-04 12:43:00,46.0,19.0,-100.00,SE,128,5.0,10.0,34,-99.99,,,-99.99,,2013-04-04 16:43:00,
2013-04-04 12:55:00,46.0,19.0,-100.00,SE,128,5.0,10.0,34,-99.99,,,-99.99,,2013-04-04 16:55:00,
2013-04-04 14:00:00,42.0,26.0,-100.00,SW,214,8.0,16.0,52,-99.99,,,-99.99,,2013-04-04 18:00:00,
2013-04-04 14:23:00,42.0,26.0,-100.00,SW,214,8.0,16.0,52,-99.99,,,-99.99,,2013-04-04 18:23:00,
2013-04-04 14:33:00,42.0,26.0,-100.00,SW,214,8.0,16.0,52,-99.99,,,-99.99,,2013-04-04 18:33:00,
2013-04-04 14:43:00,42.0,26.0,-100.00,SW,214,8.0,16.0,52,-99.99,,,-99.99,,2013-04-04 18:43:00,
2013-04-04 14:53:00,42.0,26.0,-100.00,SW,214,8.0,16.0,52,-99.99,,,-99.99,,2013-04-04 18:53:00,
2013-04-04 15:00:00,46.0,23.0,-100.00,SSW,196,7.0,17.0,41,-99.99,,,-99.99,,2013-04-04 19:00:00,
2013-04-04 15:22:00,46.0,23.0,-100.00,SSW,196,7.0,17.0,41,-99.99,,,-99.99,,2013-04-04 19:22:00,
2013-04-04 15:33:00,46.0,23.0,-100.00,SSW,196,7.0,17.0,41,-99.99,,,-99.99,,2013-04-04 19:33:00,
2013-04-04 15:43:00,46.0,23.0,-100.00,SSW,196,7.0,17.0,41,-99.99,,,-99.99,,2013-04-04 19:43:00,
2013-04-04 15:53:00,46.0,23.0,-100.00,SSW,196,7.0,17.0,41,-99.99,,,-99.99,,2013-04-04 19:53:00,
2013-04-04 17:00:00,45.0,29.0,-100.00,SSW,192,4.0,12.0,53,-99.99,,,-99.99,,2013-04-04 21:00:00,
2013-04-04 17:22:00,45.0,29.0,-100.00,SSW,192,4.0,12.0,53,-99.99,,,-99.99,,2013-04-04 21:22:00,
2013-04-04 17:33:00,45.0,29.0,-100.00,SSW,192,4.0,12.0,53,-99.99,,,-99.99,,2013-04-04 21:33:00,
2013-04-04 17:43:00,45.0,29.0,-100.00,SSW,192,4.0,12.0,53,-99.99,,,-99.99,,2013-04-04 21:43:00,
2013-04-04 17:53:00,45.0,29.0,-100.00,SSW,192,4.0,12.0,53,-99.99,,,-99.99,,2013-04-04 21:53:00,
2013-04-04 18:00:00,42.0,25.0,-100.00,SSW,198,9.0,13.0,51,-99.99,,,-99.99,,2013-04-04 22:00:00,
2013-04-04 18:33:00,42.0,25.0,-100.00,SSW,198,9.0,13.0,51,-99.99,,,-99.99,,2013-04-04 22:33:00,
2013-04-04 18:43:00,42.0,25.0,-100.00,SSW,198,9.0,13.0,51,-99.99,,,-99.99,,2013-04-04 22:43:00,
2013-04-04 18:53:00,42.0,25.0,-100.00,SSW,198,9.0,13.0,51,-99.99,,,-99.99,,2013-04-04 22:53:00,
2013-04-04 19:00:00,41.0,26.0,-100.00,SE,134,3.0,13.0,54,-99.99,,,-99.99,,2013-04-04 23:00:00,
2013-04-04 19:22:00,41.0,26.0,-100.00,SE,134,3.0,13.0,54,-99.99,,,-99.99,,2013-04-04 23:22:00,
2013-04-04 19:32:00,41.0,26.0,-100.00,SE,134,3.0,13.0,54,-99.99,,,-99.99,,2013-04-04 23:32:00,
2013-04-04 19:43:00,41.0,26.0,-100.00,SE,134,3.0,13.0,54,-99.99,,,-99.99,,2013-04-04 23:43:00,
2013-04-04 19:52:00,41.0,26.0,-100.00,SE,134,3.0,13.0,54,-99.99,,,-99.99,,2013-04-04 23:52:00,
2013-04-04 20:00:00,41.0,31.0,-100.00,SSW,192,11.0,13.0,66,-99.99,,,-99.99,,2013-04-05 00:00:00,
2013-04-04 20:22:00,41.0,31.0,-100.00,SSW,192,11.0,13.0,66,-99.99,,,-99.99,,2013-04-05 00:22:00,
2013-04-04 20:33:00,41.0,31.0,-100.00,SSW,192,11.0,13.0,66,-99.99,,,-99.99,,2013-04-05 00:33:00,
2013-04-04 20:43:00,41.0,31.0,-100.00,SSW,192,11.0,13.0,66,-99.99,,,-99.99,,2013-04-05 00:43:00,
2013-04-04 20:52:00,41.0,31.0,-100.00,SSW,192,11.0,13.0,66,-99.99,,,-99.99,,2013-04-05 00:52:00,
2013-04-04 21:00:00,42.0,32.0,-100.00,South,174,5.0,14.0,68,-99.99,,,-99.99,,2013-04-05 01:00:00,
2013-04-04 21:22:00,42.0,32.0,-100.00,South,174,5.0,14.0,68,-99.99,,,-99.99,,2013-04-05 01:22:00,
2013-04-04 21:32:00,42.0,32.0,-100.00,South,174,5.0,14.0,68,-99.99,,,-99.99,,2013-04-05 01:32:00,
2013-04-04 21:42:00,42.0,32.0,-100.00,South,174,5.0,14.0,68,-99.99,,,-99.99,,2013-04-05 01:42:00,
2013-04-04 21:54:00,42.0,32.0,-100.00,South,174,5.0,14.0,68,-99.99,,,-99.99,,2013-04-05 01:54:00,
2013-04-04 22:00:00,41.0,32.0,-100.00,South,172,5.0,15.0,70,-99.99,,,-99.99,,2013-04-05 02:00:00,
2013-04-04 22:22:00,41.0,32.0,-100.00,South,172,5.0,15.0,70,-99.99,,,-99.99,,2013-04-05 02:22:00,
2013-04-04 22:32:00,41.0,32.0,-100.00,South,172,5.0,15.0,70,-99.99,,,-99.99,,2013-04-05 02:32:00,
2013-04-04 22:42:00,41.0,32.0,-100.00,South,172,5.0,15.0,70,-99.99,,,-99.99,,2013-04-05 02:42:00,
2013-04-04 22:52:00,41.0,32.0,-100.00,South,172,5.0,15.0,70,-99.99,,,-99.99,,2013-04-05 02:52:00,
2013-04-04 23:00:00,42.0,34.0,-100.00,SSW,200,5.0,10.0,72,-99.99,,,-99.99,,2013-04-05 03:00:00,
2013-04-04 23:33:00,42.0,34.0,-100.00,SSW,200,5.0,10.0,72,-99.99,,,-99.99,,2013-04-05 03:33:00,
2013-04-04 23:43:00,42.0,34.0,-100.00,SSW,200,5.0,10.0,72,-99.99,,,-99.99,,2013-04-05 03:43:00,
2013-04-04 23:54:00,42.0,34.0,-100.00,SSW,200,5.0,10.0,72,-99.99,,,-99.99,,2013-04-05 03:54:00,